createdAt,value
2023-02-19T02:46:40.713Z,1.63
2023-02-19T02:49:22.665Z,1.58
2023-02-19T02:51:55.421Z,1.60
2023-02-19T02:54:52.456Z,1.80
2023-02-19T02:57:22.232Z,1.20
2023-02-19T02:59:54.035Z,1.58
2023-02-19T03:02:31.359Z,1.30
2023-02-19T03:05:43.125Z,1.38
2023-02-19T03:08:27.094Z,1.27
2023-02-19T03:11:20.429Z,1.10
2023-02-19T03:14:06.911Z,0.90
2023-02-19T03:16:59.249Z,0.73
2023-02-19T03:19:30.256Z,1.10
2023-02-19T03:22:20.336Z,1.08
2023-02-19T03:25:23.009Z,0.75
2023-02-19T03:27:52.446Z,1.10
2023-02-19T03:30:25.617Z,0.77
2023-02-19T03:33:08.330Z,0.70
2023-02-19T03:35:46.409Z,0.60
2023-02-19T03:38:22.562Z,0.63
2023-02-19T03:41:44.857Z,0.75
2023-02-19T03:44:24.188Z,0.93
2023-02-19T03:47:35.988Z,0.60
2023-02-19T03:50:25.754Z,0.60
2023-02-19T03:53:02.547Z,0.80
2023-02-19T03:55:43.709Z,0.52
2023-02-19T03:58:31.611Z,0.80
2023-02-19T04:01:16.925Z,0.90
2023-02-19T04:03:56.931Z,1.20
2023-02-19T04:06:30.519Z,1.00
2023-02-19T04:09:03.130Z,1.20
2023-02-19T04:11:33.284Z,0.90
2023-02-19T04:14:21.509Z,0.80
2023-02-19T04:16:58.887Z,0.80
2023-02-19T04:19:30.628Z,1.02
2023-02-19T04:22:00.028Z,0.60
2023-02-19T04:24:36.208Z,0.60
2023-02-19T04:27:05.628Z,0.65
2023-02-19T04:29:32.798Z,0.40
2023-02-19T04:31:59.788Z,0.50
2023-02-19T04:34:26.768Z,0.43
2023-02-19T04:36:53.673Z,0.50
2023-02-19T04:39:20.658Z,0.50
2023-02-19T04:41:47.586Z,0.63
2023-02-19T04:44:14.638Z,0.40
2023-02-19T04:46:43.226Z,0.40
2023-02-19T04:49:10.712Z,0.38
2023-02-19T04:51:39.185Z,0.60
2023-02-19T04:54:06.373Z,0.60
2023-02-19T04:56:33.676Z,2.20
2023-02-19T04:59:00.742Z,1.00
2023-02-19T05:01:27.911Z,0.55
2023-02-19T05:03:54.857Z,0.40
2023-02-19T05:06:21.810Z,0.60
2023-02-19T05:08:48.753Z,0.60
2023-02-19T05:11:15.766Z,0.50
2023-02-19T05:13:42.818Z,0.40
2023-02-19T05:16:16.275Z,0.47
2023-02-19T05:18:45.910Z,0.60
2023-02-19T05:21:13.978Z,0.40
2023-02-19T05:23:42.227Z,0.32
2023-02-19T05:26:18.060Z,0.60
2023-02-19T05:28:48.040Z,0.50
2023-02-19T05:31:16.451Z,1.17
2023-02-19T05:33:44.430Z,0.50
2023-02-19T05:36:14.101Z,0.43
2023-02-19T05:38:42.407Z,0.60
2023-02-19T05:41:17.097Z,0.50
2023-02-19T05:43:47.057Z,0.25
2023-02-19T05:46:19.648Z,0.50
2023-02-19T05:48:48.384Z,0.52
2023-02-19T05:51:19.457Z,0.40
2023-02-19T05:53:47.501Z,0.40
2023-02-19T05:56:31.865Z,0.40
2023-02-19T05:59:06.389Z,0.60
2023-02-19T06:01:34.434Z,0.40
2023-02-19T06:04:01.552Z,0.50
2023-02-19T06:06:28.728Z,0.60
2023-02-19T06:08:55.924Z,0.50
2023-02-19T06:11:24.669Z,0.30
2023-02-19T06:13:51.911Z,0.43
2023-02-19T06:16:19.478Z,0.40
2023-02-19T06:18:46.929Z,0.38
2023-02-19T06:21:16.369Z,0.50
2023-02-19T06:23:44.745Z,0.30
2023-02-19T06:26:23.278Z,0.38
2023-02-19T06:28:52.921Z,0.40
2023-02-19T06:31:22.873Z,0.50
2023-02-19T06:33:53.106Z,0.40
2023-02-19T06:36:21.995Z,0.55
2023-02-19T06:38:49.019Z,0.60
2023-02-19T06:41:16.536Z,0.50
2023-02-19T06:43:43.720Z,0.45
2023-02-19T06:46:13.021Z,1.33
2023-02-19T06:48:42.978Z,0.57
2023-02-19T06:51:14.338Z,0.70
2023-02-19T06:53:41.377Z,0.68
2023-02-19T06:56:30.496Z,0.60
2023-02-19T06:59:01.035Z,0.73
2023-02-19T07:01:31.263Z,0.50
2023-02-19T07:03:59.049Z,0.60
2023-02-19T07:06:27.624Z,0.80
2023-02-19T07:08:57.860Z,0.90
2023-02-19T07:11:26.988Z,0.82
2023-02-19T07:14:07.702Z,1.05
2023-02-19T07:16:44.890Z,1.15
2023-02-19T07:19:12.145Z,1.13
2023-02-19T07:22:02.234Z,1.23
2023-02-19T07:24:29.409Z,1.55
2023-02-19T07:26:56.506Z,1.10
2023-02-19T07:29:23.563Z,1.05
2023-02-19T07:31:50.532Z,0.90
2023-02-19T07:34:17.715Z,1.60
2023-02-19T07:36:44.588Z,0.80
2023-02-19T07:39:14.003Z,0.77
2023-02-19T07:41:41.278Z,0.85
2023-02-19T07:44:08.164Z,0.85
2023-02-19T07:46:35.276Z,0.70
2023-02-19T07:49:02.214Z,0.80
2023-02-19T07:51:29.183Z,0.70
2023-02-19T07:53:56.063Z,0.60
2023-02-19T07:56:22.993Z,0.70
2023-02-19T07:58:50.009Z,1.02
2023-02-19T08:01:44.228Z,1.45
2023-02-19T08:04:13.996Z,1.10
2023-02-19T08:06:42.115Z,1.25
2023-02-19T08:09:09.585Z,1.10
2023-02-19T08:11:54.928Z,1.00
2023-02-19T08:14:28.610Z,0.95
2023-02-19T08:16:55.882Z,0.70
2023-02-19T08:19:23.113Z,0.70
2023-02-19T08:21:56.650Z,0.93
2023-02-19T08:24:26.315Z,0.85
2023-02-19T08:26:55.280Z,0.73
2023-02-19T08:29:22.308Z,0.73
2023-02-19T08:31:49.327Z,0.70
2023-02-19T08:34:16.652Z,1.05
2023-02-19T08:36:44.307Z,0.70
2023-02-19T08:39:11.242Z,0.85
2023-02-19T08:41:38.181Z,1.10
2023-02-19T08:44:05.198Z,0.90
2023-02-19T08:46:34.110Z,1.15
2023-02-19T08:49:01.348Z,1.58
2023-02-19T08:51:28.384Z,1.70
2023-02-19T08:53:55.264Z,1.35
2023-02-19T08:56:22.376Z,1.48
2023-02-19T08:58:49.272Z,1.45
2023-02-19T09:01:20.792Z,1.80
2023-02-19T09:03:47.752Z,1.95
2023-02-19T09:06:19.220Z,1.92
2023-02-19T09:08:46.973Z,1.70
2023-02-19T09:11:14.592Z,1.27
2023-02-19T09:13:42.664Z,1.50
2023-02-19T09:16:10.872Z,1.50
2023-02-19T09:18:37.936Z,1.08
2023-02-19T09:21:06.541Z,1.10
2023-02-19T09:23:35.314Z,0.98
2023-02-19T09:26:06.811Z,0.73
2023-02-19T09:28:34.422Z,0.85
2023-02-19T09:31:07.536Z,0.70
2023-02-19T09:33:34.620Z,0.70
2023-02-19T09:36:02.504Z,0.55
2023-02-19T09:38:31.042Z,0.60
2023-02-19T09:41:06.080Z,0.55
2023-02-19T09:43:33.728Z,0.93
2023-02-19T09:46:09.848Z,0.45
2023-02-19T09:48:36.798Z,0.75
2023-02-19T09:51:04.753Z,0.70
2023-02-19T09:53:43.631Z,0.80
2023-02-19T09:56:10.734Z,0.90
2023-02-19T09:58:58.070Z,0.85
2023-02-19T10:01:32.433Z,0.90
2023-02-19T10:03:59.628Z,0.70
2023-02-19T10:06:29.802Z,0.93
2023-02-19T10:09:22.234Z,0.77
2023-02-19T10:11:50.004Z,1.42
2023-02-19T10:14:46.187Z,0.80
2023-02-19T10:17:26.538Z,0.90
2023-02-19T10:19:54.326Z,1.33
2023-02-19T10:22:21.350Z,0.80
2023-02-19T10:24:54.059Z,0.93
2023-02-19T10:27:21.664Z,1.40
2023-02-19T10:29:50.953Z,0.93
2023-02-19T10:32:25.221Z,0.90
2023-02-19T10:35:16.598Z,1.00
2023-02-19T10:37:47.820Z,1.02
2023-02-19T10:40:18.324Z,0.90
2023-02-19T10:42:52.257Z,0.98
2023-02-19T10:45:44.662Z,0.80
2023-02-19T10:48:30.582Z,0.90
2023-02-19T10:51:05.115Z,1.27
2023-02-19T10:53:51.655Z,1.00
2023-02-19T10:56:29.892Z,0.95
2023-02-19T10:59:34.393Z,1.17
2023-02-19T11:02:15.691Z,0.82
2023-02-19T11:05:03.577Z,1.20
2023-02-19T11:07:31.063Z,0.88
2023-02-19T11:10:00.071Z,1.48
2023-02-19T11:12:34.414Z,1.10
2023-02-19T11:15:19.922Z,1.30
2023-02-19T11:18:06.055Z,0.95
2023-02-19T11:20:33.866Z,1.30
2023-02-19T11:23:15.096Z,1.00
2023-02-19T11:25:48.530Z,0.60
2023-02-19T11:28:38.932Z,0.68
2023-02-19T11:31:32.287Z,0.70
2023-02-19T11:34:21.201Z,0.60
2023-02-19T11:37:13.452Z,0.60
2023-02-19T11:39:44.685Z,0.80
2023-02-19T11:42:57.607Z,0.90
2023-02-19T11:46:02.526Z,0.70
2023-02-19T11:49:06.706Z,0.90
2023-02-19T11:55:38.764Z,0.65
2023-02-19T11:58:46.237Z,1.25
2023-02-19T12:01:34.315Z,0.63
2023-02-19T12:04:48.238Z,0.77
2023-02-19T12:08:17.502Z,0.50
2023-02-19T12:11:24.716Z,0.88
2023-02-19T12:14:49.173Z,0.95
2023-02-19T12:18:02.862Z,1.00
2023-02-19T12:21:11.287Z,1.13
2023-02-19T12:24:37.297Z,0.90
2023-02-19T12:27:36.496Z,0.77
2023-02-19T12:30:28.406Z,1.10
2023-02-19T13:54:40.138Z,0.90
2023-02-19T13:57:23.428Z,1.00
2023-02-19T13:59:56.944Z,1.13
2023-02-19T14:02:32.474Z,0.70
2023-02-19T14:05:47.968Z,0.70
2023-02-19T14:12:43.998Z,1.05
2023-02-19T14:15:55.509Z,0.77
2023-02-19T14:18:46.523Z,0.63
2023-02-19T14:21:36.172Z,0.90
2023-02-19T14:24:27.093Z,0.88
2023-02-19T14:27:21.761Z,0.80
2023-02-19T14:30:43.964Z,0.73
2023-02-19T14:33:17.435Z,0.90
2023-02-19T14:38:27.046Z,0.77
2023-02-19T14:41:00.540Z,1.15
2023-02-19T14:43:33.758Z,0.73
2023-02-19T14:46:29.727Z,0.70
2023-02-19T14:51:55.360Z,1.00
2023-02-19T14:54:53.620Z,0.63
2023-02-19T14:57:36.013Z,1.00
2023-02-19T15:00:22.059Z,0.88
2023-02-19T15:02:52.059Z,1.10
2023-02-19T15:05:26.630Z,0.80
2023-02-19T15:08:09.170Z,0.90
2023-02-19T15:10:42.259Z,0.93
2023-02-19T15:13:19.956Z,0.85
2023-02-19T15:15:47.531Z,0.90
2023-02-19T15:18:22.479Z,0.90
2023-02-19T15:20:51.541Z,1.00
2023-02-19T15:23:30.819Z,0.93
2023-02-19T15:26:01.272Z,1.15
2023-02-19T15:28:44.008Z,1.00
2023-02-19T15:31:41.067Z,1.00
2023-02-19T15:34:28.562Z,1.88
2023-02-19T15:37:05.854Z,1.30
2023-02-19T15:39:56.328Z,1.63
2023-02-19T15:42:30.270Z,1.50
2023-02-19T15:45:25.337Z,1.10
2023-02-19T15:49:55.601Z,1.55
2023-02-19T15:53:47.907Z,0.90
2023-02-19T15:56:39.103Z,1.20
2023-02-19T16:06:05.156Z,1.33
